createdAt,value
2019-03-20T00:00:59.964Z,7.30
2019-03-20T00:03:28.671Z,7.20
2019-03-20T00:05:57.207Z,7.20
2019-03-20T00:08:25.767Z,7.20
2019-03-20T00:10:54.390Z,7.20
2019-03-20T00:13:22.992Z,7.10
2019-03-20T00:15:51.698Z,7.00
2019-03-20T00:18:20.364Z,7.00
2019-03-20T00:20:48.766Z,7.20
2019-03-20T00:23:17.507Z,7.00
2019-03-20T00:25:46.241Z,7.00
2019-03-20T00:28:14.732Z,7.00
2019-03-20T00:30:43.443Z,6.90
2019-03-20T00:33:12.292Z,6.80
2019-03-20T00:35:41.070Z,6.60
2019-03-20T00:38:09.832Z,6.90
2019-03-20T00:40:38.483Z,6.90
2019-03-20T00:43:07.202Z,6.80
2019-03-20T00:45:36.047Z,6.90
2019-03-20T00:48:05.297Z,6.90
2019-03-20T00:50:33.817Z,7.10
2019-03-20T00:53:03.643Z,6.80
2019-03-20T00:55:32.356Z,6.60
2019-03-20T00:58:01.088Z,6.60
2019-03-20T01:00:30.088Z,6.70
2019-03-20T01:02:58.899Z,6.70
2019-03-20T01:05:27.640Z,6.50
2019-03-20T01:07:57.408Z,6.40
2019-03-20T01:10:26.139Z,6.70
2019-03-20T01:12:55.023Z,6.70
2019-03-20T01:15:23.950Z,6.60
2019-03-20T01:17:52.770Z,6.70
2019-03-20T01:20:21.464Z,6.60
2019-03-20T01:22:50.393Z,6.70
2019-03-20T01:25:19.233Z,6.40
2019-03-20T01:27:47.992Z,6.50
2019-03-20T01:30:36.593Z,6.40
2019-03-20T01:33:06.962Z,6.40
2019-03-20T01:35:35.860Z,6.30
2019-03-20T01:38:05.147Z,6.30
2019-03-20T01:40:33.988Z,6.60
2019-03-20T01:43:02.724Z,6.60
2019-03-20T01:45:31.407Z,6.60
2019-03-20T01:48:00.226Z,6.80
2019-03-20T01:50:29.256Z,6.70
2019-03-20T01:52:58.032Z,7.00
2019-03-20T01:55:26.742Z,6.70
2019-03-20T01:57:55.460Z,6.70
2019-03-20T02:00:24.111Z,6.50
2019-03-20T02:02:52.721Z,6.80
2019-03-20T02:05:21.360Z,6.70
2019-03-20T02:07:50.026Z,6.40
2019-03-20T02:10:18.906Z,6.50
2019-03-20T02:12:47.555Z,6.40
2019-03-20T02:15:16.123Z,6.80
2019-03-20T02:17:44.981Z,6.70
2019-03-20T02:20:15.052Z,6.70
2019-03-20T02:22:43.862Z,6.50
2019-03-20T02:25:15.579Z,6.30
2019-03-20T02:27:44.405Z,6.40
2019-03-20T02:30:15.038Z,6.50
2019-03-20T02:32:44.822Z,6.80
2019-03-20T02:35:13.583Z,6.40
2019-03-20T02:37:42.353Z,6.50
2019-03-20T02:40:11.543Z,6.40
2019-03-20T02:42:40.231Z,6.30
2019-03-20T02:45:11.091Z,6.30
2019-03-20T02:47:39.732Z,6.20
2019-03-20T02:50:08.567Z,6.00
2019-03-20T02:52:37.244Z,6.20
2019-03-20T02:55:07.482Z,6.30
2019-03-20T02:57:36.154Z,6.50
2019-03-20T03:00:06.493Z,6.40
2019-03-20T03:02:35.560Z,6.10
2019-03-20T03:05:04.908Z,6.10
2019-03-20T03:07:33.555Z,6.10
2019-03-20T03:10:05.292Z,6.10
2019-03-20T03:12:34.029Z,6.30
2019-03-20T03:15:04.612Z,6.10
2019-03-20T03:17:33.723Z,6.10
2019-03-20T03:20:02.579Z,6.10
2019-03-20T03:22:31.233Z,6.00
2019-03-20T03:24:59.972Z,5.90
2019-03-20T03:27:28.608Z,6.00
2019-03-20T03:29:57.154Z,6.00
2019-03-20T03:32:25.721Z,6.10
2019-03-20T03:34:54.326Z,6.10
2019-03-20T03:37:23.130Z,6.30
2019-03-20T03:39:51.807Z,6.20
2019-03-20T03:42:20.333Z,5.70
2019-03-20T03:44:50.010Z,5.50
2019-03-20T03:47:18.733Z,5.50
2019-03-20T03:49:47.178Z,5.50
2019-03-20T03:52:15.783Z,5.30
2019-03-20T03:54:44.418Z,5.50
2019-03-20T03:57:13.171Z,5.50
2019-03-20T03:59:41.652Z,5.60
2019-03-20T04:02:10.422Z,5.80
2019-03-20T04:04:39.097Z,5.90
2019-03-20T04:07:07.790Z,5.80
2019-03-20T04:09:36.395Z,5.80
2019-03-20T04:12:06.186Z,5.50
2019-03-20T04:14:34.801Z,5.40
2019-03-20T04:17:25.144Z,5.40
2019-03-20T04:19:53.712Z,5.20
2019-03-20T04:22:23.433Z,5.10
2019-03-20T04:24:52.123Z,5.20
2019-03-20T04:27:20.920Z,5.10
2019-03-20T04:29:49.660Z,5.30
2019-03-20T04:32:18.438Z,5.30
2019-03-20T04:34:47.034Z,5.10
2019-03-20T04:37:16.317Z,5.30
2019-03-20T04:39:45.164Z,5.40
2019-03-20T04:42:13.705Z,5.10
2019-03-20T04:44:43.878Z,5.10
2019-03-20T04:47:15.116Z,5.10
2019-03-20T04:49:43.636Z,5.00
2019-03-20T04:52:12.223Z,5.10
2019-03-20T04:54:40.928Z,5.30
2019-03-20T04:57:09.472Z,5.40
2019-03-20T04:59:37.977Z,5.40
2019-03-20T05:02:06.700Z,5.70
2019-03-20T05:04:36.141Z,5.60
2019-03-20T05:07:04.818Z,5.50
2019-03-20T05:09:33.421Z,5.60
2019-03-20T05:12:02.105Z,5.60
2019-03-20T05:14:31.848Z,5.50
2019-03-20T05:17:00.352Z,5.40
2019-03-20T05:19:28.825Z,5.50
2019-03-20T05:21:57.476Z,5.70
2019-03-20T05:24:26.106Z,5.40
2019-03-20T05:26:54.810Z,5.30
2019-03-20T05:29:23.473Z,5.40
2019-03-20T05:31:52.181Z,5.50
2019-03-20T05:34:20.913Z,5.60
2019-03-20T05:36:50.552Z,5.50
2019-03-20T05:39:19.252Z,5.50
2019-03-20T05:41:47.877Z,5.70
2019-03-20T05:44:16.620Z,5.80
2019-03-20T05:46:45.101Z,5.80
2019-03-20T05:49:13.827Z,5.70
2019-03-20T05:51:42.455Z,5.80
2019-03-20T05:54:11.250Z,6.20
2019-03-20T05:56:39.785Z,6.20
2019-03-20T05:59:08.536Z,6.30
2019-03-20T06:01:37.081Z,6.30
2019-03-20T06:04:05.981Z,6.20
2019-03-20T06:06:34.601Z,6.40
2019-03-20T06:09:04.310Z,6.70
2019-03-20T06:11:32.866Z,6.70
2019-03-20T06:14:01.478Z,6.70
2019-03-20T06:16:31.019Z,6.90
2019-03-20T06:19:01.822Z,6.90
2019-03-20T06:21:31.820Z,7.30
2019-03-20T06:24:00.601Z,7.40
2019-03-20T06:26:29.254Z,7.70
2019-03-20T06:28:58.033Z,7.70
2019-03-20T06:31:26.754Z,7.90
2019-03-20T06:33:55.542Z,8.00
2019-03-20T06:36:24.275Z,8.10
2019-03-20T06:38:52.919Z,8.30
2019-03-20T06:41:21.702Z,8.30
2019-03-20T06:43:50.509Z,8.20
2019-03-20T06:46:19.309Z,8.40
2019-03-20T06:48:48.013Z,8.40
2019-03-20T06:51:16.778Z,8.70
2019-03-20T06:53:45.234Z,8.90
2019-03-20T06:56:13.769Z,9.00
2019-03-20T06:58:42.286Z,8.90
2019-03-20T07:01:22.094Z,9.00
2019-03-20T07:04:24.698Z,9.20
2019-03-20T07:07:01.526Z,9.40
2019-03-20T07:10:04.113Z,9.30
2019-03-20T07:12:32.810Z,9.30
2019-03-20T07:15:01.689Z,9.40
2019-03-20T07:17:30.285Z,9.50
2019-03-20T07:19:58.928Z,9.60
2019-03-20T07:22:27.765Z,9.70
2019-03-20T07:24:56.313Z,9.50
2019-03-20T07:27:24.855Z,9.70
2019-03-20T07:29:53.575Z,9.70
2019-03-20T07:32:22.130Z,9.70
2019-03-20T07:34:50.733Z,9.70
2019-03-20T07:37:19.866Z,9.80
2019-03-20T07:39:48.569Z,10.00
2019-03-20T07:42:17.023Z,10.00
2019-03-20T07:44:45.613Z,10.10
2019-03-20T07:47:14.119Z,10.20
2019-03-20T07:49:42.727Z,10.10
2019-03-20T07:52:11.229Z,10.10
2019-03-20T07:54:39.731Z,10.20
2019-03-20T07:57:08.270Z,10.40
2019-03-20T07:59:36.850Z,10.30
2019-03-20T08:02:05.622Z,10.50
2019-03-20T08:04:34.274Z,10.50
2019-03-20T08:07:02.852Z,10.20
2019-03-20T08:09:31.433Z,10.30
2019-03-20T08:12:00.100Z,10.40
2019-03-20T08:14:28.518Z,10.60
2019-03-20T08:16:58.275Z,10.80
2019-03-20T08:19:26.982Z,10.90
2019-03-20T08:21:55.642Z,10.90
2019-03-20T08:24:24.310Z,11.00
2019-03-20T08:26:52.943Z,10.90
2019-03-20T08:29:21.712Z,10.90
2019-03-20T08:31:50.312Z,10.80
2019-03-20T08:34:18.908Z,10.80
2019-03-20T08:36:47.906Z,11.10
2019-03-20T08:39:16.644Z,11.20
2019-03-20T08:41:45.337Z,11.40
2019-03-20T08:44:14.117Z,11.20
2019-03-20T08:46:42.947Z,11.20
2019-03-20T08:49:11.522Z,11.10
2019-03-20T08:51:40.075Z,11.20
2019-03-20T08:54:08.650Z,11.40
2019-03-20T08:56:37.278Z,11.50
2019-03-20T08:59:06.027Z,11.30
2019-03-20T09:01:34.651Z,11.40
2019-03-20T09:04:03.353Z,11.70
2019-03-20T09:06:31.852Z,11.90
2019-03-20T09:09:00.549Z,12.00
2019-03-20T09:11:29.192Z,12.00
2019-03-20T09:13:57.966Z,12.20
2019-03-20T09:16:27.387Z,12.00
2019-03-20T09:18:56.109Z,12.10
2019-03-20T09:21:24.610Z,12.10
2019-03-20T09:23:53.109Z,12.10
2019-03-20T09:26:21.770Z,12.30
2019-03-20T09:28:50.554Z,12.40
2019-03-20T09:31:19.068Z,12.50
2019-03-20T09:33:47.870Z,12.50
2019-03-20T09:36:16.793Z,12.50
2019-03-20T09:38:45.364Z,12.30
2019-03-20T09:41:13.820Z,12.70
2019-03-20T09:43:42.535Z,12.90
2019-03-20T09:46:11.120Z,12.90
2019-03-20T09:48:39.859Z,12.80
2019-03-20T09:51:08.772Z,12.90
2019-03-20T09:53:37.588Z,12.80
2019-03-20T09:56:06.189Z,13.00
2019-03-20T09:58:35.013Z,13.10
2019-03-20T10:01:03.874Z,13.40
2019-03-20T10:03:32.456Z,13.50
2019-03-20T10:06:01.199Z,13.70
2019-03-20T10:08:29.804Z,13.60
2019-03-20T10:10:58.691Z,13.20
2019-03-20T10:13:27.452Z,13.20
2019-03-20T10:15:56.173Z,13.50
2019-03-20T10:18:25.833Z,13.60
2019-03-20T10:20:54.607Z,13.70
2019-03-20T10:23:23.315Z,13.80
2019-03-20T10:25:51.955Z,13.60
2019-03-20T10:28:20.538Z,13.90
2019-03-20T10:30:49.107Z,13.90
2019-03-20T10:33:17.971Z,13.80
2019-03-20T10:35:50.430Z,13.70
2019-03-20T10:39:21.362Z,13.90
2019-03-20T10:41:50.071Z,14.10
2019-03-20T10:44:18.691Z,14.00
2019-03-20T10:46:47.266Z,14.20
2019-03-20T10:49:15.822Z,13.80
2019-03-20T10:51:44.470Z,14.30
2019-03-20T10:54:13.013Z,14.80
2019-03-20T10:56:41.501Z,14.50
2019-03-20T10:59:10.081Z,14.60
2019-03-20T11:01:42.797Z,14.90
2019-03-20T11:04:09.212Z,14.80
2019-03-20T11:06:37.717Z,14.90
2019-03-20T11:09:17.834Z,15.10
2019-03-20T11:11:38.935Z,15.10
2019-03-20T11:14:07.488Z,15.10
2019-03-20T11:16:36.206Z,15.40
2019-03-20T11:19:06.158Z,15.60
2019-03-20T11:21:34.942Z,15.50
2019-03-20T11:24:03.774Z,15.50
2019-03-20T11:26:32.552Z,15.70
2019-03-20T11:29:01.198Z,15.30
2019-03-20T11:31:30.041Z,15.20
2019-03-20T11:33:58.834Z,15.30
2019-03-20T11:36:27.424Z,15.20
2019-03-20T11:38:56.344Z,15.40
2019-03-20T11:41:25.128Z,14.80
2019-03-20T11:43:53.739Z,15.50
2019-03-20T11:46:22.465Z,16.00
2019-03-20T11:48:51.252Z,16.40
2019-03-20T11:51:19.668Z,16.40
2019-03-20T11:53:48.300Z,16.30
2019-03-20T11:56:17.092Z,16.20
2019-03-20T11:58:45.721Z,16.50
2019-03-20T12:01:14.192Z,15.90
2019-03-20T12:03:42.804Z,15.60
2019-03-20T12:06:11.385Z,15.40
2019-03-20T12:08:40.087Z,15.70
2019-03-20T12:11:08.722Z,14.80
2019-03-20T12:13:37.558Z,15.40
2019-03-20T12:16:06.347Z,16.50
2019-03-20T12:18:35.073Z,16.10
2019-03-20T12:21:04.172Z,17.10
2019-03-20T12:23:33.831Z,17.50
2019-03-20T12:26:03.124Z,17.70
2019-03-20T12:28:31.707Z,17.40
2019-03-20T12:31:00.657Z,17.40
2019-03-20T12:33:29.512Z,17.40
2019-03-20T12:35:58.127Z,18.10
2019-03-20T12:38:27.453Z,18.20
2019-03-20T12:40:56.615Z,18.00
2019-03-20T12:43:25.717Z,18.00
2019-03-20T12:45:54.493Z,17.70
2019-03-20T12:48:23.366Z,18.40
2019-03-20T12:50:52.164Z,18.50
2019-03-20T12:53:23.276Z,18.90
2019-03-20T12:55:52.226Z,18.30
2019-03-20T12:58:20.984Z,18.70
2019-03-20T13:03:17.838Z,18.00
2019-03-20T13:05:46.775Z,18.10
2019-03-20T13:08:15.902Z,18.40
2019-03-20T13:10:52.735Z,18.30
2019-03-20T13:13:21.696Z,18.90
2019-03-20T13:15:50.417Z,18.40
2019-03-20T13:18:19.311Z,18.50
2019-03-20T13:20:49.302Z,18.40
2019-03-20T13:23:20.622Z,19.00
2019-03-20T13:25:49.598Z,18.60
2019-03-20T13:28:19.752Z,18.90
2019-03-20T13:30:53.521Z,18.30
2019-03-20T13:33:26.077Z,18.80
2019-03-20T13:35:52.947Z,19.00
2019-03-20T13:38:22.822Z,18.80
2019-03-20T13:40:51.740Z,18.90
2019-03-20T13:43:20.874Z,19.00
2019-03-20T13:45:51.782Z,19.60
2019-03-20T13:48:20.896Z,19.20
2019-03-20T13:50:50.830Z,19.60
2019-03-20T13:53:25.615Z,19.10
2019-03-20T13:55:54.375Z,19.00
2019-03-20T13:58:23.356Z,19.50
2019-03-20T14:00:52.366Z,20.00
2019-03-20T14:03:23.264Z,19.20
2019-03-20T14:05:55.781Z,19.70
2019-03-20T14:08:24.589Z,19.90
2019-03-20T14:10:53.633Z,19.70
2019-03-20T14:13:22.542Z,19.00
2019-03-20T14:15:51.707Z,18.70
2019-03-20T14:18:22.556Z,18.30
2019-03-20T14:20:57.701Z,19.10
2019-03-20T14:23:27.577Z,19.90
2019-03-20T14:25:57.575Z,19.30
2019-03-20T14:28:26.622Z,19.60
2019-03-20T14:30:55.300Z,19.10
2019-03-20T14:33:24.190Z,18.40
2019-03-20T14:36:24.885Z,18.60
2019-03-20T14:39:26.289Z,18.90
2019-03-20T14:42:13.822Z,18.80
2019-03-20T14:45:29.858Z,19.70
2019-03-20T14:47:58.921Z,19.20
2019-03-20T14:50:27.626Z,19.40
2019-03-20T14:52:57.397Z,19.20
2019-03-20T14:55:26.335Z,18.60
2019-03-20T14:57:55.235Z,19.30
2019-03-20T15:00:26.504Z,18.90
2019-03-20T15:03:01.602Z,19.10
2019-03-20T15:05:30.619Z,19.60
2019-03-20T15:08:02.305Z,19.40
2019-03-20T15:10:33.297Z,19.00
2019-03-20T15:13:08.417Z,19.20
2019-03-20T15:15:44.628Z,18.90
2019-03-20T15:18:15.960Z,19.20
2019-03-20T15:20:44.798Z,19.70
2019-03-20T15:23:15.528Z,19.00
2019-03-20T15:25:44.273Z,18.90
2019-03-20T15:28:13.038Z,19.00
2019-03-20T15:30:41.819Z,19.40
2019-03-20T15:33:10.433Z,19.20
2019-03-20T15:35:42.379Z,18.80
2019-03-20T15:38:12.224Z,18.90
2019-03-20T15:40:41.033Z,18.20
2019-03-20T15:43:09.638Z,18.00
2019-03-20T15:45:38.375Z,18.20
2019-03-20T15:48:13.148Z,18.50
2019-03-20T15:50:42.594Z,19.10
2019-03-20T15:53:17.969Z,18.90
2019-03-20T15:55:47.644Z,18.80
2019-03-20T15:58:20.770Z,18.80
2019-03-20T16:00:50.619Z,18.70
2019-03-20T16:03:31.614Z,18.90
2019-03-20T16:06:00.348Z,18.90
2019-03-20T16:08:29.169Z,19.30
2019-03-20T16:11:06.212Z,19.10
2019-03-20T16:13:28.838Z,18.80
2019-03-20T16:15:57.599Z,18.70
2019-03-20T16:18:29.683Z,18.60
2019-03-20T16:20:59.214Z,18.80
2019-03-20T16:23:28.065Z,18.10
2019-03-20T16:25:56.665Z,18.30
2019-03-20T16:28:25.606Z,18.30
2019-03-20T16:30:54.631Z,17.40
2019-03-20T16:33:23.950Z,17.10
2019-03-20T16:35:52.601Z,16.80
2019-03-20T16:38:25.477Z,17.00
2019-03-20T16:40:55.137Z,17.10
2019-03-20T16:43:36.286Z,17.50
2019-03-20T16:46:08.120Z,16.60
2019-03-20T16:48:38.313Z,17.40
2019-03-20T16:51:12.697Z,16.80
2019-03-20T16:53:42.163Z,17.00
2019-03-20T16:56:16.793Z,16.50
2019-03-20T16:58:45.890Z,15.90
2019-03-20T17:01:21.374Z,15.30
2019-03-20T17:03:50.781Z,14.90
2019-03-20T17:06:19.382Z,14.90
2019-03-20T17:08:57.708Z,14.80
2019-03-20T17:11:37.738Z,14.80
2019-03-20T17:13:56.778Z,14.70
2019-03-20T17:16:25.721Z,14.60
2019-03-20T17:18:54.534Z,14.60
2019-03-20T17:21:23.151Z,14.40
2019-03-20T17:23:52.738Z,14.10
2019-03-20T17:26:27.099Z,13.90
2019-03-20T17:28:55.761Z,13.80
2019-03-20T17:31:28.000Z,13.50
2019-03-20T17:33:58.432Z,13.50
2019-03-20T17:36:30.325Z,13.60
2019-03-20T17:38:59.647Z,13.40
2019-03-20T17:41:36.845Z,13.20
2019-03-20T17:44:07.320Z,13.00
2019-03-20T17:46:36.290Z,12.90
2019-03-20T17:49:05.023Z,12.80
2019-03-20T17:51:33.673Z,12.80
2019-03-20T17:54:02.540Z,12.70
2019-03-20T17:56:31.311Z,12.80
2019-03-20T17:58:59.992Z,12.50
2019-03-20T18:01:28.887Z,12.70
2019-03-20T18:03:57.633Z,12.80
2019-03-20T18:06:26.326Z,12.90
2019-03-20T18:08:54.784Z,12.50
2019-03-20T18:11:30.216Z,12.40
2019-03-20T18:13:58.903Z,12.70
2019-03-20T18:16:30.920Z,12.60
2019-03-20T18:18:59.658Z,12.60
2019-03-20T18:21:34.419Z,12.50
2019-03-20T18:24:03.998Z,12.40
2019-03-20T18:26:35.281Z,12.50
2019-03-20T18:29:04.549Z,12.30
2019-03-20T18:31:33.976Z,11.90
2019-03-20T18:34:19.688Z,12.00
2019-03-20T18:37:58.646Z,11.90
2019-03-20T18:40:28.299Z,11.60
2019-03-20T18:42:57.175Z,11.90
2019-03-20T18:45:29.572Z,11.50
2019-03-20T18:47:58.343Z,11.40
2019-03-20T18:50:27.020Z,11.70
2019-03-20T18:52:55.926Z,11.80
2019-03-20T18:55:24.537Z,11.90
2019-03-20T18:57:53.364Z,11.80
2019-03-20T19:00:23.903Z,11.90
2019-03-20T19:02:53.444Z,11.90
2019-03-20T19:05:25.492Z,11.70
2019-03-20T19:07:54.319Z,11.60
2019-03-20T19:10:28.805Z,11.70
2019-03-20T19:12:57.898Z,11.70
2019-03-20T19:15:28.330Z,9.70
2019-03-20T19:17:57.224Z,11.70
2019-03-20T19:20:25.924Z,11.70
2019-03-20T19:22:54.603Z,11.60
2019-03-20T19:25:23.524Z,11.50
2019-03-20T19:27:52.087Z,11.40
2019-03-20T19:30:20.890Z,11.30
2019-03-20T19:32:49.638Z,11.30
2019-03-20T19:35:18.669Z,11.30
2019-03-20T19:37:47.388Z,11.20
2019-03-20T19:40:16.292Z,10.90
2019-03-20T19:42:44.961Z,10.80
2019-03-20T19:45:13.889Z,10.90
2019-03-20T19:47:42.676Z,11.10
2019-03-20T19:50:12.658Z,11.10
2019-03-20T19:52:43.075Z,10.80
2019-03-20T19:55:12.097Z,11.10
2019-03-20T19:57:41.107Z,11.20
2019-03-20T20:00:12.604Z,11.00
2019-03-20T20:02:41.304Z,11.10
2019-03-20T20:05:15.716Z,11.10
2019-03-20T20:07:40.479Z,10.90
2019-03-20T20:10:09.760Z,10.90
2019-03-20T20:12:38.388Z,10.90
2019-03-20T20:15:12.922Z,11.00
2019-03-20T20:17:41.453Z,10.90
2019-03-20T20:20:12.136Z,10.80
2019-03-20T20:22:41.875Z,10.70
2019-03-20T20:25:10.622Z,10.60
2019-03-20T20:27:39.463Z,10.60
2019-03-20T20:30:10.901Z,10.50
2019-03-20T20:32:39.338Z,10.40
2019-03-20T20:35:08.376Z,10.50
2019-03-20T20:37:38.147Z,10.50
2019-03-20T20:40:09.044Z,10.40
2019-03-20T20:42:42.889Z,10.50
2019-03-20T20:45:09.511Z,10.40
2019-03-20T20:47:38.232Z,10.30
2019-03-20T20:50:07.127Z,10.20
2019-03-20T20:52:35.827Z,10.10
2019-03-20T20:55:05.196Z,9.90
2019-03-20T20:57:33.854Z,10.00
2019-03-20T21:00:02.572Z,9.90
2019-03-20T21:02:31.412Z,10.20
2019-03-20T21:05:00.267Z,10.10
2019-03-20T21:07:29.108Z,10.00
2019-03-20T21:09:57.634Z,10.00
2019-03-20T21:12:26.235Z,10.30
2019-03-20T21:14:54.876Z,10.10
2019-03-20T21:17:30.736Z,9.80
2019-03-20T21:19:59.993Z,10.00
2019-03-20T21:23:27.865Z,10.00
2019-03-20T21:25:58.872Z,9.60
2019-03-20T21:29:16.675Z,9.90
2019-03-20T21:31:56.587Z,9.90
2019-03-20T21:35:09.885Z,10.10
2019-03-20T21:38:07.459Z,10.20
2019-03-20T21:41:00.505Z,10.10
2019-03-20T21:44:07.625Z,10.40
2019-03-20T21:47:20.614Z,10.10
2019-03-20T21:49:50.007Z,10.00
2019-03-20T21:52:19.129Z,10.00
2019-03-20T21:55:28.281Z,9.90
2019-03-20T21:58:23.931Z,9.70
2019-03-20T22:01:42.781Z,9.60
2019-03-20T22:04:12.777Z,9.70
2019-03-20T22:07:17.109Z,9.40
2019-03-20T22:10:38.086Z,9.10
2019-03-20T22:13:19.015Z,9.20
2019-03-20T22:16:00.128Z,9.30
2019-03-20T22:19:16.340Z,9.30
2019-03-20T22:22:36.925Z,9.20
2019-03-20T22:25:45.653Z,9.30
2019-03-20T22:28:50.279Z,9.30
2019-03-20T22:31:19.874Z,9.50
2019-03-20T22:34:24.774Z,9.50
2019-03-20T22:36:54.131Z,9.10
2019-03-20T22:40:02.953Z,9.20
2019-03-20T22:43:02.447Z,9.30
2019-03-20T22:46:27.638Z,9.30
2019-03-20T22:49:09.763Z,9.40
2019-03-20T22:51:53.980Z,9.60
2019-03-20T22:55:05.601Z,9.40
2019-03-20T22:58:15.634Z,9.50
2019-03-20T23:00:46.019Z,9.20
2019-03-20T23:03:21.201Z,9.10
2019-03-20T23:05:51.451Z,8.90
2019-03-20T23:08:20.571Z,8.70
2019-03-20T23:10:50.682Z,8.60
2019-03-20T23:13:19.787Z,8.70
2019-03-20T23:15:49.347Z,8.60
2019-03-20T23:18:18.775Z,8.70
2019-03-20T23:20:48.132Z,8.70
2019-03-20T23:23:17.441Z,8.80
2019-03-20T23:25:46.807Z,8.70
2019-03-20T23:28:15.985Z,8.60
2019-03-20T23:30:45.250Z,8.50
2019-03-20T23:33:14.318Z,8.60
2019-03-20T23:35:43.405Z,8.50
2019-03-20T23:38:12.741Z,8.50
2019-03-20T23:40:41.941Z,8.50
2019-03-20T23:43:11.691Z,8.50
2019-03-20T23:45:40.807Z,8.40
2019-03-20T23:48:26.885Z,8.80
2019-03-20T23:50:59.955Z,8.50
2019-03-20T23:53:29.227Z,8.50
2019-03-20T23:55:58.276Z,8.60
2019-03-20T23:58:27.554Z,8.80
